Time;durP1;ratioP1;P1;durP2;ratioP2;P2;SDS_P1;SDS_P2;PMS_P1;PMS_P2;Temp;Humidity;BMP_temperature;BMP_pressure;BME280_temperature;BME280_humidity;BME280_pressure;Samples;Min_cycle;Max_cycle;Signal;HPM_P1;HPM_P2
2023/10/22 00:00:12;;;;;;;0.93;0.50;;;;;;;11.83;77.91;98419.88;334632;28;16715;-71
2023/10/22 00:00:25;;;;;;;1.08;0.50;;;;;;;11.81;77.96;98417.34;337206;28;18445;-71
2023/10/22 00:00:37;;;;;;;2.17;0.50;;;;;;;11.79;77.77;98419.19;335955;28;5475;-70
2023/10/22 00:00:49;;;;;;;2.20;0.50;;;;;;;11.78;77.59;98420.97;337977;28;5564;-70
2023/10/22 00:01:01;;;;;;;0.73;0.73;;;;;;;11.76;77.60;98424.59;335904;28;13222;-71
2023/10/22 00:01:13;;;;;;;1.33;1.23;;;;;;;11.77;77.92;98416.72;337869;28;4553;-72
2023/10/22 00:01:26;;;;;;;2.08;1.80;;;;;;;11.80;77.77;98426.09;338029;28;5280;-71
2023/10/22 00:01:38;;;;;;;2.00;1.60;;;;;;;11.77;77.81;98416.72;335917;28;18798;-71
2023/10/22 00:01:50;;;;;;;1.92;1.60;;;;;;;11.72;77.85;98428.31;338867;28;4578;-71
2023/10/22 00:02:02;;;;;;;1.90;1.70;;;;;;;11.70;78.41;98414.53;337990;28;18191;-71
2023/10/22 00:02:15;;;;;;;1.77;1.48;;;;;;;11.69;78.39;98413.72;340351;28;4586;-71
2023/10/22 00:02:27;;;;;;;2.08;1.00;;;;;;;11.66;78.26;98418.25;337427;28;18277;-71
2023/10/22 00:02:39;;;;;;;2.25;0.98;;;;;;;11.62;78.76;98416.75;338648;28;5272;-71
2023/10/22 00:02:52;;;;;;;2.00;0.90;;;;;;;11.58;78.87;98416.91;335952;28;17802;-72
2023/10/22 00:03:04;;;;;;;1.88;0.75;;;;;;;11.53;79.10;98423.28;334251;28;17445;-71
2023/10/22 00:03:17;;;;;;;1.40;0.60;;;;;;;11.51;79.23;98420.78;340740;28;13651;-70
2023/10/22 00:03:30;;;;;;;1.55;0.60;;;;;;;11.50;79.56;98416.50;337017;28;16427;-70
2023/10/22 00:03:43;;;;;;;2.00;0.60;;;;;;;11.47;79.85;98418.41;338024;28;18087;-71
2023/10/22 00:03:56;;;;;;;1.80;0.70;;;;;;;11.43;80.08;98417.78;340670;28;5322;-71
2023/10/22 00:04:08;;;;;;;0.82;0.60;;;;;;;11.46;80.25;98417.59;338372;28;18093;-71
2023/10/22 00:04:22;;;;;;;0.60;0.60;;;;;;;11.48;80.18;98415.75;339847;28;8523;-71
2023/10/22 00:04:34;;;;;;;0.90;0.60;;;;;;;11.51;79.83;98415.59;337775;28;18152;-71
2023/10/22 00:04:46;;;;;;;1.40;0.60;;;;;;;11.57;79.37;98415.22;336101;28;4630;-71
2023/10/22 00:04:58;;;;;;;1.27;0.60;;;;;;;11.58;79.33;98422.09;337949;28;17881;-71
2023/10/22 00:05:10;;;;;;;0.60;0.43;;;;;;;11.63;79.40;98418.41;340632;28;4637;-71
2023/10/22 00:05:24;;;;;;;0.50;0.45;;;;;;;11.64;79.52;98415.72;339675;28;5244;-70
2023/10/22 00:05:36;;;;;;;0.50;0.45;;;;;;;11.66;79.44;98418.25;334023;28;17655;-70
2023/10/22 00:05:48;;;;;;;0.50;0.40;;;;;;;11.65;79.61;98416.53;336821;28;13349;-69
2023/10/22 00:06:00;;;;;;;1.25;0.47;;;;;;;11.67;79.66;98414.69;335306;28;4774;-70
2023/10/22 00:06:12;;;;;;;1.45;0.60;;;;;;;11.67;79.81;98417.28;341203;28;5510;-70
2023/10/22 00:06:24;;;;;;;1.23;0.57;;;;;;;11.69;79.51;98423.25;334609;28;18354;-71
2023/10/22 00:06:36;;;;;;;0.55;0.50;;;;;;;11.69;79.62;98418.06;339152;28;5551;-70
2023/10/22 00:06:48;;;;;;;0.75;0.50;;;;;;;11.67;79.73;98415.56;336690;28;9401;-70
2023/10/22 00:07:00;;;;;;;0.90;0.60;;;;;;;11.66;79.69;98419.06;340065;28;4636;-70
2023/10/22 00:07:15;;;;;;;1.17;0.70;;;;;;;11.66;80.06;98420.84;340082;28;4584;-70
2023/10/22 00:07:27;;;;;;;1.13;0.70;;;;;;;11.60;79.94;98415.03;332062;28;18176;-70
2023/10/22 00:07:39;;;;;;;0.80;0.60;;;;;;;11.57;80.16;98414.41;336442;28;18157;-70
2023/10/22 00:07:51;;;;;;;0.60;0.40;;;;;;;11.55;80.65;98417.09;339693;28;5390;-70
2023/10/22 00:08:04;;;;;;;2.25;0.50;;;;;;;11.58;80.29;98421.28;337927;28;4589;-71
2023/10/22 00:08:16;;;;;;;2.67;0.60;;;;;;;11.58;80.33;98416.91;341532;28;5252;-70
2023/10/22 00:08:28;;;;;;;2.67;0.70;;;;;;;11.59;80.34;98418.59;338095;28;18008;-70
2023/10/22 00:08:41;;;;;;;0.80;0.70;;;;;;;11.57;80.58;98420.44;340773;28;4484;-71
2023/10/22 00:08:53;;;;;;;0.65;0.60;;;;;;;11.55;80.64;98417.09;340195;28;7558;-71
2023/10/22 00:09:06;;;;;;;0.50;0.47;;;;;;;11.56;80.84;98413.53;338184;28;17505;-70
2023/10/22 00:09:18;;;;;;;0.80;0.50;;;;;;;11.57;80.84;98425.66;342625;28;5311;-69
2023/10/22 00:09:30;;;;;;;0.80;0.50;;;;;;;11.60;80.48;98415.03;335227;28;17742;-71
2023/10/22 00:09:42;;;;;;;0.73;0.50;;;;;;;11.58;80.67;98422.09;340070;28;5311;-72
2023/10/22 00:09:54;;;;;;;0.75;0.52;;;;;;;11.57;80.59;98419.59;337915;28;15238;-71
2023/10/22 00:10:07;;;;;;;0.75;0.57;;;;;;;11.55;80.97;98422.28;341004;28;5322;-70
2023/10/22 00:10:19;;;;;;;0.65;0.55;;;;;;;11.54;81.31;98419.78;338684;28;17289;-71
2023/10/22 00:10:31;;;;;;;0.80;0.60;;;;;;;11.56;81.72;98428.31;341638;28;4499;-71
2023/10/22 00:10:43;;;;;;;0.73;0.52;;;;;;;11.56;81.52;98417.91;339181;28;4501;-71
2023/10/22 00:10:55;;;;;;;0.77;0.52;;;;;;;11.59;80.86;98418.59;332227;28;18320;-71
2023/10/22 00:11:07;;;;;;;1.70;0.60;;;;;;;11.58;80.73;98422.09;340344;28;4665;-71
2023/10/22 00:11:19;;;;;;;1.65;0.70;;;;;;;11.58;80.75;98416.06;338050;28;18448;-71
2023/10/22 00:11:31;;;;;;;0.80;0.80;;;;;;;11.62;80.47;98421.94;339895;28;5580;-71
2023/10/22 00:11:43;;;;;;;0.80;0.80;;;;;;;11.62;80.70;98421.94;339934;28;4710;-71
2023/10/22 00:11:55;;;;;;;0.95;0.70;;;;;;;11.64;80.33;98414.88;336965;28;16007;-71
2023/10/22 00:12:08;;;;;;;1.08;0.70;;;;;;;11.65;80.10;98419.16;341091;28;5296;-71
2023/10/22 00:12:20;;;;;;;2.70;0.60;;;;;;;11.67;79.70;98420.75;337568;28;16621;-70
2023/10/22 00:12:32;;;;;;;2.67;0.60;;;;;;;11.68;79.66;98419.00;338866;28;4615;-70
2023/10/22 00:12:44;;;;;;;2.22;0.60;;;;;;;11.70;79.41;98419.75;339592;28;5482;-70
2023/10/22 00:12:56;;;;;;;1.42;0.70;;;;;;;11.72;79.60;98423.09;336620;28;18182;-71
2023/10/22 00:13:08;;;;;;;1.70;0.80;;;;;;;11.72;79.26;98423.09;338946;28;4716;-71
2023/10/22 00:13:20;;;;;;;1.08;0.80;;;;;;;11.69;79.27;98418.06;331378;28;16255;-71
2023/10/22 00:13:33;;;;;;;1.10;0.82;;;;;;;11.69;79.74;98418.06;338786;28;5075;-71
2023/10/22 00:13:45;;;;;;;1.50;0.85;;;;;;;11.68;79.66;98421.59;337161;28;16196;-71
2023/10/22 00:13:57;;;;;;;2.17;0.80;;;;;;;11.68;80.31;98419.00;339261;28;4549;-71
2023/10/22 00:14:09;;;;;;;1.90;0.80;;;;;;;11.68;80.40;98416.38;339308;28;4503;-71
2023/10/22 00:14:21;;;;;;;1.60;0.73;;;;;;;11.68;80.11;98421.59;338263;28;18221;-71
2023/10/22 00:14:34;;;;;;;1.70;0.70;;;;;;;11.68;80.09;98421.59;339751;28;5526;-71
2023/10/22 00:14:46;;;;;;;1.73;0.70;;;;;;;11.68;80.08;98416.38;336259;28;5302;-71
2023/10/22 00:14:58;;;;;;;1.48;0.70;;;;;;;11.70;79.83;98422.34;339705;28;4643;-71
2023/10/22 00:15:10;;;;;;;0.95;0.73;;;;;;;11.70;79.60;98417.13;335333;28;11561;-70
2023/10/22 00:15:23;;;;;;;0.77;0.70;;;;;;;11.71;79.76;98418.81;338027;28;5249;-71
2023/10/22 00:15:35;;;;;;;0.70;0.68;;;;;;;11.73;79.96;98422.16;336330;28;18095;-72
2023/10/22 00:15:47;;;;;;;0.60;0.60;;;;;;;11.75;79.62;98417.69;340074;28;4725;-71
2023/10/22 00:16:00;;;;;;;1.17;0.85;;;;;;;11.74;79.80;98422.06;338644;28;5604;-71
2023/10/22 00:16:12;;;;;;;1.63;0.85;;;;;;;11.73;79.75;98425.63;332297;28;18148;-71
2023/10/22 00:16:24;;;;;;;1.42;0.80;;;;;;;11.75;79.88;98422.91;340122;28;4696;-71
2023/10/22 00:16:36;;;;;;;1.20;0.70;;;;;;;11.72;80.31;98418.72;336766;28;12535;-72
2023/10/22 00:16:48;;;;;;;1.33;0.80;;;;;;;11.71;80.43;98424.88;338801;28;4568;-71
2023/10/22 00:17:00;;;;;;;2.30;0.88;;;;;;;11.71;80.45;98424.00;338019;28;5265;-72
2023/10/22 00:17:13;;;;;;;2.63;0.98;;;;;;;11.72;80.24;98417.88;337759;28;17685;-73
2023/10/22 00:17:25;;;;;;;2.10;0.85;;;;;;;11.72;80.62;98423.09;338968;28;5286;-71
2023/10/22 00:17:37;;;;;;;0.85;0.70;;;;;;;11.72;80.01;98423.09;336863;28;17744;-71
2023/10/22 00:17:49;;;;;;;0.90;0.80;;;;;;;11.72;80.61;98423.94;340192;28;5324;-70
2023/10/22 00:18:01;;;;;;;0.80;0.70;;;;;;;11.75;80.49;98422.91;337645;28;12376;-72
2023/10/22 00:18:14;;;;;;;0.90;0.75;;;;;;;11.76;80.17;98420.22;340754;28;4488;-71
2023/10/22 00:18:27;;;;;;;1.10;0.80;;;;;;;11.77;79.80;98426.25;336992;28;17948;-70
2023/10/22 00:18:39;;;;;;;1.33;0.88;;;;;;;11.78;79.97;98425.34;340429;28;4510;-70
2023/10/22 00:18:53;;;;;;;1.40;0.80;;;;;;;11.79;80.05;98427.00;337359;28;19037;-71
2023/10/22 00:19:06;;;;;;;1.10;0.60;;;;;;;11.79;79.54;98419.19;330321;28;5101;-71
2023/10/22 00:19:18;;;;;;;1.37;0.57;;;;;;;11.78;79.72;98427.94;336154;28;16736;-71
2023/10/22 00:19:30;;;;;;;1.02;0.47;;;;;;;11.77;79.62;98426.25;338137;28;5255;-71
2023/10/22 00:19:42;;;;;;;1.10;0.57;;;;;;;11.76;79.79;98424.59;337831;28;12424;-72
2023/10/22 00:19:54;;;;;;;1.73;0.50;;;;;;;11.71;79.51;98424.00;340085;28;5353;-71
2023/10/22 00:20:08;;;;;;;1.58;0.52;;;;;;;11.69;79.17;98426.72;340182;28;4703;-71
2023/10/22 00:20:20;;;;;;;0.80;0.70;;;;;;;11.66;79.28;98423.44;338084;28;17969;-71
2023/10/22 00:20:37;;;;;;;0.95;0.88;;;;;;;11.64;79.08;98426.13;335741;28;4768;-71
2023/10/22 00:20:49;;;;;;;1.20;0.85;;;;;;;11.63;79.22;98429.66;337616;28;16821;-70
2023/10/22 00:21:06;;;;;;;1.42;0.75;;;;;;;11.62;79.12;98421.94;339359;28;5257;-71
2023/10/22 00:21:18;;;;;;;1.23;0.65;;;;;;;11.62;78.95;98427.16;337444;28;17628;-71
2023/10/22 00:21:31;;;;;;;0.80;0.50;;;;;;;11.63;78.80;98423.59;339729;28;5100;-71
2023/10/22 00:21:45;;;;;;;0.50;0.40;;;;;;;11.62;79.23;98427.16;335761;28;13530;-71
2023/10/22 00:21:57;;;;;;;0.57;0.50;;;;;;;11.62;79.47;98429.75;337630;28;13097;-71
2023/10/22 00:22:12;;;;;;;0.55;0.50;;;;;;;11.60;79.69;98430.66;335781;28;5282;-70
2023/10/22 00:22:24;;;;;;;1.20;0.40;;;;;;;11.55;80.03;98427.50;335238;28;5492;-70
2023/10/22 00:22:36;;;;;;;1.70;0.47;;;;;;;11.51;80.10;98420.78;337928;28;4521;-71
2023/10/22 00:22:48;;;;;;;1.40;0.40;;;;;;;11.50;80.04;98429.50;335642;28;4545;-71
2023/10/22 00:23:00;;;;;;;0.63;0.43;;;;;;;11.46;80.37;98427.16;338206;28;17055;-70
2023/10/22 00:23:12;;;;;;;2.00;0.60;;;;;;;11.40;80.91;98425.75;337428;28;5899;-71
2023/10/22 00:23:24;;;;;;;2.13;0.50;;;;;;;11.39;80.75;98427.50;328570;28;13470;-70
2023/10/22 00:23:36;;;;;;;2.40;0.50;;;;;;;11.40;80.61;98425.75;337736;28;4552;-70
2023/10/22 00:23:48;;;;;;;1.90;0.50;;;;;;;11.39;81.29;98424.06;335655;28;13401;-72
2023/10/22 00:24:00;;;;;;;1.80;0.60;;;;;;;11.38;81.23;98435.38;338242;28;4655;-70
2023/10/22 00:24:12;;;;;;;1.23;0.50;;;;;;;11.38;80.96;98431.03;339537;28;5285;-71
2023/10/22 00:24:24;;;;;;;1.65;0.63;;;;;;;11.40;80.51;98433.53;335472;28;18948;-71
2023/10/22 00:24:37;;;;;;;1.90;0.77;;;;;;;11.34;80.82;98429.50;339964;28;5116;-71
2023/10/22 00:24:49;;;;;;;1.42;0.88;;;;;;;11.39;80.64;98429.28;337116;28;17842;-71
2023/10/22 00:25:01;;;;;;;1.42;1.00;;;;;;;11.40;80.43;98429.16;335928;28;5161;-71
2023/10/22 00:25:13;;;;;;;1.33;1.00;;;;;;;11.42;80.39;98429.09;341026;28;5151;-71
2023/10/22 00:25:26;;;;;;;1.60;1.00;;;;;;;11.43;80.39;98432.53;337973;28;18775;-71
2023/10/22 00:25:38;;;;;;;1.20;0.90;;;;;;;11.45;80.42;98431.53;340751;28;5240;-71
2023/10/22 00:25:49;;;;;;;0.70;0.70;;;;;;;11.45;80.46;98426.34;337135;28;13161;-71
2023/10/22 00:26:02;;;;;;;0.70;0.70;;;;;;;11.45;80.65;98430.69;340685;28;4512;-71
2023/10/22 00:26:16;;;;;;;1.25;0.73;;;;;;;11.43;81.05;98438.59;337438;28;17980;-71
2023/10/22 00:26:28;;;;;;;1.67;0.85;;;;;;;11.42;80.56;98434.31;340645;28;5323;-71
2023/10/22 00:26:40;;;;;;;1.50;0.80;;;;;;;11.41;80.70;98435.25;335203;28;17039;-71
2023/10/22 00:26:52;;;;;;;1.13;0.60;;;;;;;11.42;80.76;98431.69;339484;28;4472;-69
2023/10/22 00:27:04;;;;;;;0.80;0.40;;;;;;;11.38;80.88;98435.38;329781;28;17523;-71
2023/10/22 00:27:17;;;;;;;0.90;0.50;;;;;;;11.38;80.76;98435.38;337923;28;4612;-70
2023/10/22 00:27:29;;;;;;;0.60;0.50;;;;;;;11.36;80.61;98432.03;336393;28;12614;-71
2023/10/22 00:27:41;;;;;;;0.70;0.60;;;;;;;11.30;81.06;98432.38;336869;28;17985;-71
2023/10/22 00:27:53;;;;;;;0.88;0.60;;;;;;;11.30;81.07;98434.97;332017;28;4919;-70
2023/10/22 00:28:05;;;;;;;0.95;0.70;;;;;;;11.31;81.00;98434.06;336056;28;5585;-72
2023/10/22 00:28:17;;;;;;;0.63;0.60;;;;;;;11.30;81.00;98429.78;338500;28;4870;-70
2023/10/22 00:28:29;;;;;;;0.90;0.50;;;;;;;11.30;80.96;98433.22;337798;28;4671;-71
2023/10/22 00:28:41;;;;;;;1.10;0.50;;;;;;;11.28;81.02;98434.22;334137;28;19008;-71
2023/10/22 00:28:53;;;;;;;3.40;0.70;;;;;;;11.25;81.51;98429.19;339713;28;4529;-70
2023/10/22 00:29:06;;;;;;;3.13;0.70;;;;;;;11.20;81.52;98432.88;337158;28;5118;-71
2023/10/22 00:29:18;;;;;;;2.55;0.70;;;;;;;11.19;82.20;98439.00;334172;28;6966;-70
2023/10/22 00:29:30;;;;;;;1.40;0.70;;;;;;;11.19;82.10;98436.41;337073;28;17947;-70
2023/10/22 00:29:43;;;;;;;1.00;0.75;;;;;;;11.22;81.88;98439.75;339555;28;4543;-71
2023/10/22 00:29:56;;;;;;;1.65;1.27;;;;;;;11.24;81.86;98435.31;336834;28;6736;-70
2023/10/22 00:30:08;;;;;;;2.58;2.22;;;;;;;11.25;81.71;98435.25;339938;28;4660;-70
2023/10/22 00:30:20;;;;;;;2.75;2.40;;;;;;;11.27;81.43;98435.13;337868;28;15953;-71
2023/10/22 00:30:34;;;;;;;2.20;1.80;;;;;;;11.26;81.40;98436.06;339274;28;4514;-71
2023/10/22 00:30:47;;;;;;;1.70;1.10;;;;;;;11.24;81.35;98435.31;338026;28;4940;-71
2023/10/22 00:30:59;;;;;;;1.58;0.95;;;;;;;11.27;81.42;98435.13;337927;28;16954;-71
2023/10/22 00:31:11;;;;;;;1.30;0.90;;;;;;;11.25;81.10;98445.66;336441;28;14114;-71
2023/10/22 00:31:23;;;;;;;1.23;0.85;;;;;;;11.18;81.35;98433.88;338707;28;4660;-71
2023/10/22 00:31:35;;;;;;;1.40;0.88;;;;;;;11.13;81.58;98436.75;338906;28;6052;-71
2023/10/22 00:31:47;;;;;;;1.27;0.80;;;;;;;11.13;81.41;98436.75;336197;28;17937;-71
2023/10/22 00:32:00;;;;;;;1.35;1.00;;;;;;;11.12;81.61;98434.22;338126;28;5324;-71
2023/10/22 00:32:12;;;;;;;1.23;1.00;;;;;;;11.14;81.26;98438.41;332418;28;18947;-71
2023/10/22 00:32:24;;;;;;;1.58;1.30;;;;;;;11.14;81.47;98445.38;338639;28;5514;-71
2023/10/22 00:32:36;;;;;;;2.45;1.50;;;;;;;11.11;81.69;98440.34;337301;28;5248;-70
2023/10/22 00:32:48;;;;;;;2.40;1.40;;;;;;;11.10;81.81;98439.50;339303;28;5258;-71
2023/10/22 00:33:01;;;;;;;1.73;1.30;;;;;;;11.07;81.72;98441.44;340232;28;4734;-70
2023/10/22 00:33:13;;;;;;;1.65;1.30;;;;;;;11.04;81.59;98447.63;337306;28;18327;-70
2023/10/22 00:33:26;;;;;;;1.70;1.45;;;;;;;11.04;81.88;98442.44;337335;28;4857;-70
2023/10/22 00:33:38;;;;;;;1.92;1.55;;;;;;;11.04;82.23;98442.44;336450;28;17557;-71
2023/10/22 00:33:51;;;;;;;2.45;1.90;;;;;;;11.06;82.42;98451.00;335436;28;5494;-71
2023/10/22 00:34:03;;;;;;;2.45;2.00;;;;;;;11.08;82.09;98438.75;336464;28;14667;-71
2023/10/22 00:34:15;;;;;;;3.05;2.00;;;;;;;11.13;81.65;98446.31;339935;28;4537;-72
2023/10/22 00:34:28;;;;;;;3.70;1.90;;;;;;;11.14;81.58;98441.00;336092;28;18011;-72
2023/10/22 00:34:40;;;;;;;3.13;1.60;;;;;;;11.13;81.57;98444.53;338793;28;5215;-71
2023/10/22 00:34:53;;;;;;;1.40;1.23;;;;;;;11.13;81.72;98441.94;336959;28;18133;-71
2023/10/22 00:35:05;;;;;;;1.20;1.00;;;;;;;11.10;81.94;98442.09;334619;28;5175;-71
2023/10/22 00:35:17;;;;;;;1.63;0.93;;;;;;;11.07;81.80;98439.69;336754;28;13697;-71
2023/10/22 00:35:29;;;;;;;1.48;0.80;;;;;;;11.10;82.14;98441.25;339199;28;5275;-71
2023/10/22 00:35:41;;;;;;;1.90;0.80;;;;;;;11.11;81.75;98438.59;339217;28;4546;-71
2023/10/22 00:35:58;;;;;;;1.35;0.80;;;;;;;11.13;82.06;98441.94;336709;28;17577;-71
2023/10/22 00:36:10;;;;;;;1.15;0.65;;;;;;;11.05;82.41;98446.72;335881;28;16912;-71
2023/10/22 00:36:24;;;;;;;1.10;0.60;;;;;;;10.97;82.36;98444.53;338275;28;19349;-71
2023/10/22 00:36:36;;;;;;;0.80;0.60;;;;;;;10.98;82.56;98443.59;337228;28;17633;-70
2023/10/22 00:36:48;;;;;;;0.77;0.60;;;;;;;11.00;83.02;98446.13;334821;28;5123;-71
2023/10/22 00:37:00;;;;;;;0.95;0.60;;;;;;;11.03;82.25;98445.97;340845;28;5286;-70
2023/10/22 00:37:12;;;;;;;0.93;0.52;;;;;;;11.06;82.02;98445.78;341232;28;5480;-70
2023/10/22 00:37:24;;;;;;;0.68;0.52;;;;;;;11.11;82.42;98451.59;337969;28;18078;-70
2023/10/22 00:37:36;;;;;;;0.40;0.40;;;;;;;11.12;82.08;98440.25;340387;28;5533;-71
2023/10/22 00:37:48;;;;;;;0.60;0.50;;;;;;;11.15;82.25;98450.50;337176;28;13622;-71
2023/10/22 00:38:00;;;;;;;0.75;0.60;;;;;;;11.15;81.74;98442.69;335005;28;5268;-71
2023/10/22 00:38:12;;;;;;;0.68;0.68;;;;;;;11.15;81.70;98445.31;339921;28;4659;-71
2023/10/22 00:38:25;;;;;;;0.77;0.68;;;;;;;11.16;81.94;98449.56;333821;28;18995;-71
2023/10/22 00:38:37;;;;;;;0.60;0.60;;;;;;;11.19;81.95;98445.97;338815;28;4720;-70
2023/10/22 00:38:50;;;;;;;0.77;0.50;;;;;;;11.20;81.88;98448.47;336413;28;18471;-70
2023/10/22 00:39:02;;;;;;;0.85;0.50;;;;;;;11.22;81.50;98444.97;338328;28;5169;-70
2023/10/22 00:39:14;;;;;;;0.77;0.43;;;;;;;11.22;81.13;98455.38;334817;28;19064;-70
2023/10/22 00:39:26;;;;;;;1.15;0.50;;;;;;;11.24;81.11;98448.31;339314;28;5541;-70
2023/10/22 00:39:38;;;;;;;1.38;0.60;;;;;;;11.24;80.91;98443.13;335351;28;4900;-70
2023/10/22 00:39:51;;;;;;;1.58;0.77;;;;;;;11.24;80.90;98443.94;336911;28;18871;-70
2023/10/22 00:40:03;;;;;;;1.27;1.05;;;;;;;11.20;80.77;98445.03;338774;28;4699;-71
2023/10/22 00:40:15;;;;;;;1.27;1.08;;;;;;;11.18;80.97;98446.88;336607;28;18886;-72
2023/10/22 00:40:27;;;;;;;0.90;0.70;;;;;;;11.20;80.95;98448.47;339744;28;4759;-72
2023/10/22 00:40:39;;;;;;;1.23;0.73;;;;;;;11.15;80.86;98450.50;336637;28;16625;-71
2023/10/22 00:40:52;;;;;;;1.40;0.95;;;;;;;11.13;80.92;98454.94;339457;28;4859;-74
2023/10/22 00:41:04;;;;;;;1.00;0.90;;;;;;;11.12;81.09;98455.84;334919;28;4661;-73
2023/10/22 00:41:16;;;;;;;1.00;0.90;;;;;;;11.10;81.17;98449.91;339829;28;17150;-70
2023/10/22 00:41:28;;;;;;;1.25;1.15;;;;;;;11.13;81.07;98461.91;339879;28;4631;-70
2023/10/22 00:41:40;;;;;;;2.13;1.70;;;;;;;11.10;80.93;98452.50;337355;28;5269;-71
2023/10/22 00:41:52;;;;;;;2.55;2.05;;;;;;;11.11;80.81;98451.59;340521;28;4967;-70
2023/10/22 00:42:04;;;;;;;3.92;2.15;;;;;;;11.06;81.15;98456.19;337529;28;17922;-70
2023/10/22 00:42:17;;;;;;;4.43;2.35;;;;;;;11.06;81.20;98452.75;339939;28;4512;-70
2023/10/22 00:42:29;;;;;;;4.63;2.85;;;;;;;11.05;81.83;98449.31;338825;28;4561;-70
2023/10/22 00:42:41;;;;;;;4.07;3.10;;;;;;;11.06;81.58;98450.16;340300;28;4698;-71
2023/10/22 00:42:54;;;;;;;4.15;3.47;;;;;;;11.08;81.34;98448.31;341158;28;5633;-71
2023/10/22 00:43:06;;;;;;;4.50;3.97;;;;;;;11.09;81.27;98453.44;337409;28;17598;-72
2023/10/22 00:43:18;;;;;;;6.63;4.18;;;;;;;11.07;81.43;98454.44;341063;28;4560;-70
2023/10/22 00:43:30;;;;;;;6.45;3.78;;;;;;;11.06;80.97;98452.75;338269;28;18037;-71
2023/10/22 00:43:42;;;;;;;6.55;3.40;;;;;;;11.06;81.34;98453.59;340156;28;4886;-71
2023/10/22 00:43:55;;;;;;;4.63;3.13;;;;;;;11.07;81.24;98452.69;340974;28;4588;-71
2023/10/22 00:44:07;;;;;;;4.10;2.90;;;;;;;11.06;81.23;98448.38;337843;28;17810;-72
2023/10/22 00:44:19;;;;;;;2.95;2.38;;;;;;;10.96;81.62;98450.63;338713;28;5219;-72
2023/10/22 00:44:31;;;;;;;1.73;1.55;;;;;;;10.90;82.39;98443.16;335693;28;18248;-71
2023/10/22 00:44:43;;;;;;;1.10;1.00;;;;;;;10.82;82.93;98452.31;339018;28;4759;-71
2023/10/22 00:44:55;;;;;;;0.95;0.88;;;;;;;10.82;82.92;98450.53;336980;28;19088;-71
2023/10/22 00:45:08;;;;;;;1.13;0.70;;;;;;;10.75;82.69;98451.78;338537;28;4624;-70
2023/10/22 00:45:20;;;;;;;1.35;0.70;;;;;;;10.75;83.05;98457.81;337396;28;5264;-71
2023/10/22 00:45:35;;;;;;;1.52;0.88;;;;;;;10.73;83.44;98454.47;338547;28;5413;-70
2023/10/22 00:45:48;;;;;;;1.05;0.80;;;;;;;10.75;83.02;98457.81;335595;28;17171;-71
2023/10/22 00:46:01;;;;;;;1.20;0.80;;;;;;;10.77;83.07;98461.19;335397;28;13639;-72
2023/10/22 00:46:21;;;;;;;2.30;1.00;;;;;;;10.81;82.79;98456.66;340317;28;4976;-71
2023/10/22 00:46:33;;;;;;;2.50;1.20;;;;;;;10.85;82.97;98452.16;335723;28;17514;-70
2023/10/22 00:46:46;;;;;;;1.70;1.10;;;;;;;10.87;82.63;98452.91;338151;28;4731;-70
2023/10/22 00:46:59;;;;;;;1.47;1.10;;;;;;;10.89;82.10;98453.66;336022;28;18697;-70
2023/10/22 00:47:15;;;;;;;2.00;1.02;;;;;;;10.87;82.22;98452.91;335846;28;17913;-70
2023/10/22 00:47:29;;;;;;;1.40;0.85;;;;;;;10.84;82.92;98456.50;334703;28;16434;-72
2023/10/22 00:47:41;;;;;;;0.98;0.88;;;;;;;10.81;82.92;98454.06;337886;28;7455;-72
2023/10/22 00:47:53;;;;;;;1.00;0.90;;;;;;;10.82;83.22;98457.50;335119;28;17254;-72
2023/10/22 00:48:08;;;;;;;1.05;0.90;;;;;;;10.81;82.92;98450.63;337354;28;4752;-70
2023/10/22 00:48:21;;;;;;;1.67;0.90;;;;;;;10.79;83.37;98458.50;335317;28;18731;-71
2023/10/22 00:48:33;;;;;;;1.77;0.95;;;;;;;10.75;83.21;98457.00;334639;28;16969;-70
2023/10/22 00:48:46;;;;;;;1.23;0.82;;;;;;;10.77;82.97;98457.75;336267;28;9214;-71
2023/10/22 00:48:59;;;;;;;1.23;0.90;;;;;;;10.79;82.85;98454.16;337432;28;16953;-71
2023/10/22 00:49:11;;;;;;;1.38;0.98;;;;;;;10.82;82.80;98452.31;338615;28;7926;-71
2023/10/22 00:49:23;;;;;;;1.27;0.82;;;;;;;10.83;82.84;98461.78;335868;28;18137;-70
2023/10/22 00:49:35;;;;;;;1.10;0.77;;;;;;;10.86;82.72;98459.84;340189;28;4501;-70
2023/10/22 00:49:48;;;;;;;1.63;0.68;;;;;;;10.87;82.53;98451.16;336944;28;17974;-71
2023/10/22 00:50:00;;;;;;;1.65;0.80;;;;;;;10.88;82.60;98457.19;338424;28;4523;-70
2023/10/22 00:50:12;;;;;;;1.98;1.00;;;;;;;10.88;83.17;98457.19;337440;28;14135;-71
2023/10/22 00:50:24;;;;;;;1.27;0.98;;;;;;;10.87;83.22;98455.50;340078;28;4515;-70
2023/10/22 00:50:39;;;;;;;1.33;0.80;;;;;;;10.89;83.30;98457.09;338544;28;4515;-70
2023/10/22 00:50:51;;;;;;;1.25;0.85;;;;;;;10.88;83.08;98455.41;336405;28;17871;-70
2023/10/22 00:51:04;;;;;;;1.13;0.85;;;;;;;10.90;83.05;98457.94;332157;28;18094;-71
2023/10/22 00:51:17;;;;;;;1.42;1.20;;;;;;;10.89;83.03;98454.50;339231;28;5133;-71
2023/10/22 00:51:29;;;;;;;1.27;1.17;;;;;;;10.90;82.98;98460.53;337198;28;17948;-71
2023/10/22 00:51:41;;;;;;;0.85;0.73;;;;;;;10.92;82.73;98453.50;339650;28;4672;-71
2023/10/22 00:51:54;;;;;;;1.08;0.82;;;;;;;10.93;82.49;98455.19;332811;28;18879;-70
2023/10/22 00:52:07;;;;;;;1.42;1.08;;;;;;;10.94;82.55;98456.84;339074;28;4726;-70
2023/10/22 00:52:20;;;;;;;2.13;1.67;;;;;;;10.95;82.95;98458.53;337136;28;18330;-70
2023/10/22 00:52:32;;;;;;;3.08;2.33;;;;;;;10.96;82.50;98460.22;335468;28;5423;-71
2023/10/22 00:52:45;;;;;;;3.30;2.63;;;;;;;10.97;82.82;98456.69;339029;28;5813;-71
2023/10/22 00:52:58;;;;;;;3.50;2.77;;;;;;;10.99;82.47;98460.06;336207;28;13700;-71
2023/10/22 00:53:14;;;;;;;3.08;2.50;;;;;;;10.99;82.39;98462.66;339090;28;5034;-71
2023/10/22 00:53:29;;;;;;;3.28;2.60;;;;;;;11.01;82.38;98463.41;336687;28;18598;-71
2023/10/22 00:53:44;;;;;;;2.58;2.28;;;;;;;11.04;81.82;98462.41;339209;28;17278;-71
2023/10/22 00:53:57;;;;;;;1.52;1.42;;;;;;;11.05;81.37;98461.50;335716;28;16737;-70
2023/10/22 00:54:11;;;;;;;2.45;1.02;;;;;;;11.03;80.97;98466.78;335891;28;16440;-71
2023/10/22 00:54:26;;;;;;;2.10;0.80;;;;;;;11.01;80.92;98458.22;336909;28;14695;-71
2023/10/22 00:54:39;;;;;;;3.65;0.90;;;;;;;11.00;80.90;98466.91;336616;28;14169;-71
2023/10/22 00:54:52;;;;;;;3.78;0.80;;;;;;;10.98;80.81;98463.56;338907;28;6876;-70
2023/10/22 00:55:05;;;;;;;2.58;0.65;;;;;;;10.97;80.67;98456.69;336367;28;18163;-71
2023/10/22 00:55:18;;;;;;;1.00;0.70;;;;;;;10.94;80.52;98462.88;340814;28;4554;-69
2023/10/22 00:55:30;;;;;;;1.02;0.70;;;;;;;10.91;80.86;98457.84;337234;28;17799;-71
2023/10/22 00:55:47;;;;;;;0.98;0.50;;;;;;;10.88;80.90;98459.78;339147;28;4603;-72
2023/10/22 00:56:00;;;;;;;0.85;0.50;;;;;;;10.84;81.21;98466.06;337436;28;18401;-71
2023/10/22 00:56:12;;;;;;;0.57;0.57;;;;;;;10.77;81.52;98460.34;340772;28;5425;-71
2023/10/22 00:56:25;;;;;;;0.70;0.60;;;;;;;10.69;81.58;98458.16;338803;28;17995;-70
2023/10/22 00:56:38;;;;;;;0.55;0.55;;;;;;;10.67;81.87;98465.19;339940;28;4521;-70
2023/10/22 00:56:51;;;;;;;0.50;0.50;;;;;;;10.66;81.81;98457.47;336824;28;17984;-70
2023/10/22 00:57:04;;;;;;;0.55;0.55;;;;;;;10.62;81.71;98464.56;337875;28;5253;-71
2023/10/22 00:57:16;;;;;;;0.70;0.68;;;;;;;10.61;81.86;98460.31;338900;28;18010;-70
2023/10/22 00:57:29;;;;;;;1.30;0.70;;;;;;;10.62;82.16;98451.56;339752;28;5234;-69
2023/10/22 00:57:42;;;;;;;1.13;0.70;;;;;;;10.64;82.02;98454.94;336314;28;17809;-71
2023/10/22 00:57:54;;;;;;;1.00;0.63;;;;;;;10.63;81.63;98458.47;336938;28;4601;-72
2023/10/22 00:58:06;;;;;;;1.75;0.60;;;;;;;10.64;81.95;98460.13;339888;28;4720;-70
2023/10/22 00:58:20;;;;;;;2.03;0.60;;;;;;;10.65;81.86;98464.44;334035;28;7797;-70
2023/10/22 00:58:34;;;;;;;1.08;0.40;;;;;;;10.64;82.12;98460.13;336164;28;19117;-70
2023/10/22 00:58:46;;;;;;;1.00;0.40;;;;;;;10.64;82.17;98460.13;336435;28;17428;-70
2023/10/22 00:58:59;;;;;;;0.75;0.50;;;;;;;10.64;81.97;98454.94;337507;28;9548;-71
2023/10/22 00:59:11;;;;;;;0.70;0.50;;;;;;;10.64;82.08;98454.94;340079;28;4494;-70
2023/10/22 00:59:24;;;;;;;3.40;0.70;;;;;;;10.63;82.41;98458.47;336214;28;4702;-71
2023/10/22 00:59:36;;;;;;;3.47;0.73;;;;;;;10.66;82.18;98463.50;334076;28;4757;-69
2023/10/22 00:59:52;;;;;;;1.30;0.68;;;;;;;10.66;82.51;98458.28;339439;28;4978;-71
2023/10/22 01:00:06;;;;;;;1.08;0.70;;;;;;;10.63;82.59;98465.44;337159;28;19048;-71
2023/10/22 01:00:20;;;;;;;0.70;0.50;;;;;;;10.60;82.15;98461.22;338805;28;5251;-70